Race
Stall Lifephorse Winnings World Rank Country Rank Track Rank
2014 Stage 3 6 187 250 kr 4 4 2


Rue Des Tempétes Sweden E 2014-09-28:4 2/2140h 2 1,12.3a O 0' 3.750 Eri Hå 0 kr
Kairos Sweden E 2014-09-28:4 6/2140h 5 1,13.8a O 0' ↑999 Stj Mi 0 kr
Arch Carrier Sweden Vi 2014-09-28:3 9/2140q 5 1,12.1a O 0' 5.000 Mal Ro 0 kr
Radiation Sweden Vi 2014-09-28:2 6/2140q 3 1,12.6ag O 0' 5.000 Mal Ro 0 kr
Souris Sweden D 2014-09-28:2 6/2640q 2 1,14.5a O 0' 3.750 Lin OA 0 kr
Hell Broke Luce Norway Ber 2014-09-28:1 1/2140h 2 1,12.6a O 0' ↑999 Gud Ge 0 kr
Monsieur Hector Norway Ber 2014-09-28:1 8/2140h 7 1,15.0ag O 0' 15.000 Was Ov 0 kr
Éclair Blanc Norway Ber 2014-09-28:1 7/2140h 6 1,13.4a O 0' ↑999 Tol Gu 0 kr
Tempting Queen Sweden Vg 2014-09-28:1 5/1640 1 1,10.1a O 0' ↑999 Sjö Di 0 kr
Swing The Pendulum Sweden Vi 2014-09-28:1 5/2140q 2 1,11.5a O 0' 7.500 Mal Ro 0 kr
No Sleep Till Brooklyn Sweden E 2014-09-28:1 7/2140h 1 1,12.1a O 0' ↑999 Sjö Cl 0 kr
Pen Expers Sweden D 2014-09-28:1 4/2640q 2 1,13.2a O 0' 5.000 Mel Gu 0 kr
Éclair Blanc Sweden D 2014-09-25:3 4/2140h 4 1,13.3a O 45' 3.010 Lin OA 6 300 kr
Hell Broke Luce Sweden L 2014-09-24:3 9/2140 6 1,10.5a O 45' 5.050 Sva Os 1 800 kr
Screaming
 Box Sweden S 2014-09-21:2 11/2140 3 1,12.5a O 0' 7.500 Hed Ol 0 kr
Feelin Alright Sweden S 2014-09-21:1 9/2140 2 1,11.4a O 0' 3.000 Ber Ro 0 kr
Pen Expers Sweden Ovi 2014-09-20:7 11/2140h 7 1,10.7a O 300' 4.600 Jan To 0 kr
Souris Sweden Ovi 2014-09-20:7 12/2140h 8 1,11.2a O 300' 4.190 Sun HO 0 kr
Archduke Of Speed Sweden Ovi 2014-09-20:7 7/2140h 1 1,10.2a N 300' ↑999 Kon Jo 300 000 kr
Arch Carrier Sweden L 2014-09-14:5 4/2140 4 1,08.5a O 100' 3.010 Eri Hå 14 000 kr
Kairos Sweden Ti 2014-09-14:4 5/2640 4 1,10.3a PB O 90' ↑999 Jon Th 12 600 kr
Monsieur Hector Sweden Vg 2014-09-14:2 6/2140 2 1,10.3a O 70' 5.020 Sjö Di 35 000 kr
Archduke Of Speed Sweden Mp 2014-09-13:7 12/2140 4 1,08.2a PB O 300' 5.020 Jan To 42 000 kr
Swing The Pendulum Sweden Mp 2014-09-13:7 3/2140 3 1,08.1a PB C 300' ↑999 Pet Ro 75 000 kr
Rue Des Tempétes Sweden Mp 2014-09-13:4 11/2140 3 1,08.4a O 200' 3.880 Jan To 50 000 kr
No Sleep Till Brooklyn Sweden Mp 2014-09-13:4 7/2140 5 1,08.5a O 200' 5.180 Unt Pe 14 000 kr
Radiation Sweden Ro 2014-09-11:8 6/2140 7 1,09.8ag O 250' 5.010 Dub JE 0 kr
Archduke Of Speed Sweden Ro 2014-09-11:4 6/2140 4 1,08.9a N 250' 5.010 Dub JE 35 000 kr
Souris Sweden Ro 2014-09-11:3 4/2140 7 1,09.2a O 250' 3.010 Goo Bj 0 kr
Pen Expers Sweden Ro 2014-09-11:2 3/2140 7 1,08.7a O 250' 5.010 Mac Ma 0 kr
Éclair Blanc Sweden Åm 2014-09-11:3 4/2140 2 1,11.7a O 45' ↑999 Abe PA 22 500 kr
Coffrefort D'argent Finland Rii 2014-09-11:3 2/2640q 4 1,12.5a O 45' 7.500 Kau JP 6 300 kr
Tempting Queen Sweden Åm 2014-09-11:2 2/2140 3 1,12.5a PB O 25' 15.000 Abe PA 6 250 kr
Hell Broke Luce Sweden F 2014-09-09:3 2/2640h 3 1,12.5a O 40' 5.020 Lin Åk 10 000 kr
Archduke Of Speed Sweden Mp 2014-09-06:7 8/2640 3 1,09.6a N 600' ↑999 Pet Ro 150 000 kr
Feelin Alright Sweden Mp 2014-09-06:7 2/2640 1 1,09.4a O 600' ↑999 Goo Bj 600 000 kr
Pen Expers Sweden Mp 2014-09-06:7 7/2640 6 1,09.7a O 600' 5.000 Sva Os 24 000 kr
Swing The Pendulum Sweden Hd 2014-09-04:21 4/2140 6 1,09.5a O 100' 3.760 Dub JE 4 000 kr
Radiation Sweden Hd 2014-09-04:18 4/2140 2 1,08.0a O 100' 3.760 Dub JE 50 000 kr
Rue Des Tempétes Sweden Hd 2014-09-04:17 4/2140 5 1,09.0a O 100' 3.010 Jör Bi 7 000 kr
Archduke Of Speed Sweden Hd 2014-09-04:15 2/2140 2 1,09.5a O 100' 3.760 Dub JE 50 000 kr
Pen Expers Sweden Hd 2014-09-04:10 3/2140 2 1,08.9a O 100' 3.010 Goo Bj 50 000 kr
No Sleep Till Brooklyn Sweden Hd 2014-09-04:9 1/2140 5 1,08.8a O 100' 3.760 Dub JE 7 000 kr
Feelin Alright Sweden Hd 2014-09-04:5 8/2140 1 1,08.3a O 100' ↑999 Jan To 100 000 kr
Souris Sweden Hd 2014-09-04:4 4/2140 1 1,08.5a O 100' ↑999 Goo Bj 100 000 kr
Arch Carrier Sweden Hd 2014-09-04:1 6/2140 7 1,09.6a O 100' 8.350 Dub JE 0 kr
Monsieur Hector Finland Kau 2014-09-03:3 3/2140 1 1,10.8a O 40' ↑999 Per Ta 40 000 kr
Kairos Finland Kok 2014-09-03:3 8/2140 6 1,09.0a PB O 50' 5.000 Hie He 2 000 kr
Souris Finland Ve 2014-08-31:1 9/2600q 3 1,11.1a O 600' 16.900 Jör Bi 150 000 kr
No Sleep Till Brooklyn Sweden Å 2014-08-31:5 6/2640 1 1,09.6a PB O 100' ↑999 Goo Bj 100 000 kr
Arch Carrier Sweden L 2014-08-31:5 3/2140 1 1,08.9a O 100' ↑999 Wes Jö 100 000 kr
Black Sparrow Sweden Ro 2014-08-31:13 6/2140 3 1,12.5a O 0' 3.000 Wes Jö 0 kr
Take Five Sweden Ro 2014-08-31:12 6/2140 1 1,13.3ag O 0' ↑999 Lun AL 0 kr
Tempting Queen Sweden Ro 2014-08-31:8 9/2140 10 1,16.1a O 0' ↑999 Eri To 0 kr
Éclair Blanc Sweden Ro 2014-08-31:5 10/2140 9 1,14.7a O 0' 15.000 Ols Da 0 kr
Big Stone Sweden Ro 2014-08-31:2 9/2140 7 1,14.4a O 0' ↑999 And OJ 0 kr
Feelin Alright Sweden Ro 2014-08-31:1 12/2140 1 1,12.4a O 0' ↑999 Sva Os 0 kr
Archduke Of Speed Sweden Hd 2014-08-30:7 5/2640 3 1,09.5a O 300' ↑999 Jan To 75 000 kr
Pen Expers Sweden Hd 2014-08-30:7 2/2640 2 1,09.4a O 300' 3.010 Hei Ve 150 000 kr
Swing The Pendulum Sweden Hd 2014-08-30:6 9/1640 5 1,06.9a O 200' 3.010 Goo Bj 14 000 kr
Rue Des Tempétes Sweden Hd 2014-08-30:4 3/2640 12 DSQag O 200' 3.010 Goo Bj - kr
Hell Broke Luce Sweden J 2014-08-24:5 4/1640 11 DSQag O 100' 7.530 Kar JJ - kr
Arch Carrier Sweden E 2014-08-24:5 8/2140q 3 1,10.4ag O 100' ↑999 Ehl Ji 25 000 kr
Archduke Of Speed Sweden Bo 2014-08-24:5 6/1640 1 1,06.9a N 100' ↑999 Mar La 100 000 kr
Kairos Sweden Bo 2014-08-24:4 7/2640 3 1,10.6a PB O 90' 5.010 Lun Pe 22 500 kr
Coffrefort D'argent Sweden Bo 2014-08-24:3 2/2140 4 1,10.1a O 80' 3.760 Olo Ha 11 200 kr
Monsieur Hector Sweden E 2014-08-24:2 3/2140q 3 1,12.3a O 70' 3.010 Sva Os 17 500 kr
Pen Expers Sweden Bs 2014-08-23:7 7/2640h 1 1,10.5a O 300' ↑999 Pet To 300 000 kr
Rue Des Tempétes Sweden Bs 2014-08-23:4 10/2640h 5 1,11.4a O 200' 3.770 Jan To 14 000 kr
No Sleep Till Brooklyn Sweden Bs 2014-08-23:4 7/2640h 12 DSQag O 200' ↑999 Pet To - kr
Archduke Of Speed Sweden Hd 2014-08-17:5 5/2140q 8 1,10.2a O 100' 3.010 Goo Bj 0 kr
Radiation Sweden Bo 2014-08-17:5 3/2140 5 1,08.9a O 100' 3.770 Olo Ha 7 000 kr
Screaming
 Box Sweden Hd 2014-08-17:4 10/2140q 6 1,10.6a O 90' ↑999 Swe Ro 3 600 kr
Tempting Queen Sweden 2014-08-17:2 2/2140q 4 1,14.1a O 0' ↑999 Lin Mi 0 kr
Big Stone Sweden 2014-08-17:1 3/2140q 10 1,15.1a O 0' ↑999 Lin Mi 0 kr
Feelin Alright Sweden Ho 2014-08-16:7 10/2640 1 1,09.1a TR O 300' ↑999 Goo Bj 300 000 kr
Swing The Pendulum Sweden Ho 2014-08-16:6 2/1640 6 1,06.5a PB O 200' 5.020 Len Pe 8 000 kr
Souris Sweden Ho 2014-08-16:4 5/2640 12 DSQag PB O 200' 103.170 Goo Bj - kr
Kairos Sweden Ti 2014-08-11:3 6/2140h 7 1,12.1a O 50' 3.760 Swe Ro 0 kr
Éclair Blanc Sweden Ho 2014-08-11:2 1/1640 2 1,10.6a PB O 25' 15.020 Lin OA 12 500 kr
Arch Carrier Sweden 2014-08-10:5 6/1640 4 1,07.0a O 100' 3.750 Kar Bj 14 000 kr
Archduke Of Speed Sweden År 2014-08-10:5 5/1640 2 1,07.3a O 100' 5.000 Hul Ma 50 000 kr
Hell Broke Luce Sweden J 2014-08-10:5 5/2140 3 1,08.8a O 100' 7.500 Nil St 25 000 kr
No Sleep Till Brooklyn Sweden Mp 2014-08-10:5 5/1640 2 1,07.2a O 100' 3.000 Sva Os 50 000 kr
Black Sparrow Sweden J 2014-08-10:4 3/2640 6 1,09.8a PB O 90' 3.750 Lug Co 3 600 kr
Coffrefort D'argent Sweden Mp 2014-08-10:3 5/2640 4 1,10.8a PB O 80' 3.750 Sva Os 11 200 kr
Take Five Sweden 2014-08-10:3 7/2140 5 1,09.8ag PB O 80' 5.000 Mel Gu 5 600 kr
Monsieur Hector Sweden Mp 2014-08-10:2 8/1640 5 1,09.4a PB O 70' 5.000 Sva Os 4 900 kr
Feelin Alright Sweden Ös 2014-08-09:7 1/2140 2 1,08.1a PB O 600' 255.000 Wes Jö 300 000 kr
Pen Expers Sweden Ös 2014-08-09:7 2/2140 4 1,08.3a O 600' 139.090 Sun Ma 84 000 kr
Rue Des Tempétes Sweden Ös 2014-08-09:6 9/2140 2 1,07.8a PB O 400' 5.260 Sju Jö 200 000 kr
Souris Sweden Ös 2014-08-09:4 2/2140 1 1,08.1a PB O 400' ↑999 Len Pe 400 000 kr
Screaming
 Box Sweden Bs 2014-08-03:4 11/2640h 3 1,12.5a O 90' 15.070 Str HR 22 500 kr
Monsieur Hector Sweden Mp 2014-08-03:5 3/1640q 4 1,12.5a O 0' 7.500 Pet Ro 0 kr
Hell Broke Luce Sweden Mp 2014-08-03:4 3/1640q 2 1,10.7ag O 0' 5.000 Pet Ro 0 kr
Swing The Pendulum Sweden Mp 2014-08-03:4 2/1640q 3 1,10.7a O 0' 3.000 Len Pe 0 kr
Black Sparrow Sweden Mp 2014-08-03:4 9/1640q 1 1,10.6a O 0' ↑999 Sva Os 0 kr
Kairos Sweden Mp 2014-08-03:2 10/1640q 1 1,10.6a O 0' ↑999 Pet Ro 0 kr
Arch Carrier Sweden Mp 2014-08-03:2 1/1640q 2 1,10.6a O 0' 5.000 Sun HO 0 kr
Pen Expers Sweden U 2014-08-02:7 2/2140 3 1,08.4a O 300' 5.690 Wes Jö 75 000 kr
Feelin Alright Sweden U 2014-08-02:7 4/2140 2 1,08.3a PB O 300' 8.490 Sju Jö 150 000 kr
Radiation Sweden U 2014-08-02:6 4/2140 5 1,08.6a O 200' 5.020 Wes Jö 14 000 kr
Souris Sweden U 2014-08-02:4 9/2140 1 1,08.5a O 200' ↑999 Len Pe 200 000 kr
Take Five Sweden Sk 2014-07-30:3 5/2140 2 1,10.4a PB O 50' ↑999 Eri Le 25 000 kr
No Sleep Till Brooklyn Sweden Ovi 2014-07-29:3 3/2140 1 1,09.1a O 50' ↑999 Mel Gu 50 000 kr
Feelin Alright Sweden Vg 2014-07-27:5 1/2140q 1 1,10.0a O 100' ↑999 Sva Os 100 000 kr
Archduke Of Speed Sweden J 2014-07-27:5 10/2140 4 1,08.5a O 100' 3.110 Sju Jö 14 000 kr
Radiation Sweden G 2014-07-27:5 3/2640h 1 1,12.0a O 100' ↑999 Gus El 100 000 kr
Screaming
 Box Sweden Vg 2014-07-27:4 10/2140q 4 1,11.1a O 90' 3.770 Käl Da 12 600 kr
Pen Expers Sweden Vg 2014-07-26:7 3/2140 7 1,08.1a O 300' ↑999 Hei Ve 0 kr
Rue Des Tempétes Sweden Vg 2014-07-26:6 5/2140 1 1,08.4a O 200' ↑999 Len Pe 200 000 kr
Souris Sweden Vg 2014-07-26:4 2/2140 1 1,08.5a O 200' ↑999 Käl Da 200 000 kr
Coffrefort D'argent Sweden Vg 2014-07-26:2 10/2140 5 1,09.3a PB O 100' ↑999 Wes Jö 7 000 kr
Tempting Queen Sweden 2014-07-25:4 10/2140 11 DSQag PB O 50' 142.360 Mel Gu - kr
Éclair Blanc Sweden 2014-07-25:2 1/2140 3 1,11.5ag PB O 30' ↑999 Kar Bj 7 500 kr
Black Sparrow Sweden Mp 2014-07-16:3 2/2140 3 1,09.6a PB O 40' 3.010 Len Pe 10 000 kr
Take Five Finland Kok 2014-07-16:3 2/1640q 1 1,10.8a O 40' ↑999 Län Ju 40 000 kr
Feelin Alright Sweden U 2014-07-13:5 8/2140 1 1,08.4a PB O 100' ↑999 Svä LÅ 100 000 kr
Arch Carrier Sweden År 2014-07-13:5 11/2140h 3 1,10.8a O 100' 15.070 Goo Bj 25 000 kr
Archduke Of Speed Sweden Hd 2014-07-13:5 5/2640 1 1,09.8a N 100' ↑999 Käl Da 100 000 kr
Hell Broke Luce Sweden Mp 2014-07-13:5 7/2640 5 1,09.4a PB O 100' 5.000 Nis Vi 7 000 kr
Screaming
 Box Sweden U 2014-07-13:4 1/1640 4 1,08.6a O 90' 3.010 Lin OA 12 600 kr
Coffrefort D'argent Sweden U 2014-07-13:3 9/2140 6 1,10.2a PB O 80' 3.010 Olo Ha 3 200 kr
Kairos Sweden S 2014-07-13:2 10/1640 5 1,11.6a O 0' 5.000 Kon Jo 0 kr
Souris Sweden Ar 2014-07-13:1 4/2640 1 1,14.8a O 0' ↑999 Hul Ja 0 kr
Rue Des Tempétes Sweden 2014-07-12:7 5/2140 7 1,08.2a PB O 600' 139.450 Kar Bj 0 kr
Pen Expers Sweden 2014-07-12:7 9/2140 4 1,08.0a O 600' 7.670 Wal To 84 000 kr
Radiation Sweden 2014-07-12:5 3/2140 3 1,08.1a C 300' ↑999 Lin CE 75 000 kr
Monsieur Hector Sweden 2014-07-12:1 3/2140 4 1,10.1ag O 150' ↑999 Len Pe 21 000 kr
No Sleep Till Brooklyn Sweden S 2014-07-10:3 4/2140 1 1,08.4a N 50' ↑999 Sun Ma 50 000 kr
Swing The Pendulum Sweden 2014-07-06:3 1/2140h 2 1,12.9a O 0' 3.750 And PM 0 kr
Feelin Alright Sweden Kr 2014-07-05:7 7/2140q 6 1,10.1a O 300' 31.510 Mal Ro 12 000 kr
Hell Broke Luce Sweden Kr 2014-07-05:6 8/1640q 5 1,08.6a O 200' 32.490 Zac To 14 000 kr
Radiation Sweden Kr 2014-07-05:5 10/2140q 3 1,10.0a O 150' ↑999 Ols DÅ 37 500 kr
Take Five Sweden S 2014-07-02:3 4/2140 2 1,10.9a PB O 40' 4.670 Hed Ol 20 000 kr
Black Sparrow Sweden Hd 2014-07-02:2 5/2640 1 1,10.7a PB O 25' ↑999 Fol Bo 25 000 kr